createdAt,value
2023-05-02T00:00:05.565Z,1221.00
2023-05-02T00:01:05.587Z,1238.00
2023-05-02T00:02:05.665Z,1229.00
2023-05-02T00:03:05.760Z,1227.00
2023-05-02T00:04:05.792Z,1215.00
2023-05-02T00:05:05.675Z,1224.00
2023-05-02T00:06:05.741Z,1233.00
2023-05-02T00:07:05.745Z,1230.00
2023-05-02T00:08:05.734Z,1207.00
2023-05-02T00:09:05.781Z,1209.00
2023-05-02T00:10:05.768Z,1211.00
2023-05-02T00:11:05.883Z,1212.00
2023-05-02T00:12:05.866Z,1216.00
2023-05-02T00:13:05.920Z,1220.00
2023-05-02T00:14:05.943Z,1226.00
2023-05-02T00:15:05.908Z,1204.00
2023-05-02T00:16:05.952Z,1218.00
2023-05-02T00:17:06.045Z,1207.00
2023-05-02T00:18:06.038Z,1201.00
2023-05-02T00:19:06.017Z,1211.00
2023-05-02T00:20:06.106Z,1198.00
2023-05-02T00:21:06.045Z,1195.00
2023-05-02T00:22:06.095Z,1196.00
2023-05-02T00:23:06.113Z,1202.00
2023-05-02T00:24:06.166Z,1196.00
2023-05-02T00:25:06.159Z,1198.00
2023-05-02T00:26:06.153Z,1204.00
2023-05-02T00:27:06.236Z,1188.00
2023-05-02T00:28:06.256Z,1183.00
2023-05-02T00:29:06.296Z,1187.00
2023-05-02T00:30:06.301Z,1192.00
2023-05-02T00:31:06.354Z,1184.00
2023-05-02T00:32:06.365Z,1193.00
2023-05-02T00:33:06.366Z,1176.00
2023-05-02T00:34:06.386Z,1183.00
2023-05-02T00:35:06.369Z,1187.00
2023-05-02T00:36:06.426Z,1196.00
2023-05-02T00:37:06.411Z,1210.00
2023-05-02T00:38:06.446Z,1209.00
2023-05-02T00:39:06.505Z,1187.00
2023-05-02T00:40:06.527Z,1185.00
2023-05-02T00:41:06.537Z,1205.00
2023-05-02T00:42:06.572Z,1187.00
2023-05-02T00:43:06.581Z,1189.00
2023-05-02T00:44:06.965Z,1164.00
2023-05-02T00:45:06.797Z,1151.00
2023-05-02T00:46:06.696Z,1189.00
2023-05-02T00:47:06.660Z,1176.00
2023-05-02T00:48:06.825Z,1164.00
2023-05-02T00:49:06.726Z,1168.00
2023-05-02T00:50:06.754Z,1151.00
2023-05-02T00:51:06.789Z,1179.00
2023-05-02T00:52:06.798Z,1166.00
2023-05-02T00:53:06.853Z,1167.00
2023-05-02T00:54:06.838Z,1165.00
2023-05-02T00:55:06.881Z,1161.00
2023-05-02T00:56:06.873Z,1179.00
2023-05-02T00:57:06.939Z,1159.00
2023-05-02T00:58:06.972Z,1159.00
2023-05-02T00:59:06.964Z,1159.00
2023-05-02T01:00:07.062Z,1172.00
2023-05-02T01:01:07.092Z,1172.00
2023-05-02T01:02:07.209Z,1169.00
2023-05-02T01:03:07.148Z,1177.00
2023-05-02T01:04:07.285Z,1161.00
2023-05-02T01:05:07.116Z,1155.00
2023-05-02T01:06:07.229Z,1138.00
2023-05-02T01:07:07.157Z,1152.00
2023-05-02T01:08:07.218Z,1137.00
2023-05-02T01:09:07.255Z,1160.00
2023-05-02T01:10:07.206Z,1153.00
2023-05-02T01:11:07.261Z,1168.00
2023-05-02T01:12:07.292Z,1142.00
2023-05-02T01:13:07.314Z,1152.00
2023-05-02T01:14:07.323Z,1150.00
2023-05-02T01:15:07.363Z,1166.00
2023-05-02T01:16:07.424Z,1143.00
2023-05-02T01:17:07.374Z,1142.00
2023-05-02T01:18:07.447Z,1160.00
2023-05-02T01:19:07.450Z,1142.00
2023-05-02T01:20:07.483Z,1138.00
2023-05-02T01:21:07.486Z,1141.00
2023-05-02T01:22:07.547Z,1141.00
2023-05-02T01:23:07.508Z,1130.00
2023-05-02T01:24:07.867Z,1150.00
2023-05-02T01:25:07.590Z,1142.00
2023-05-02T01:26:07.578Z,1138.00
2023-05-02T01:27:07.653Z,1133.00
2023-05-02T01:28:07.670Z,1136.00
2023-05-02T01:29:07.722Z,1148.00
2023-05-02T01:30:07.751Z,1120.00
2023-05-02T01:31:07.825Z,1129.00
2023-05-02T01:32:07.875Z,1135.00
2023-05-02T01:33:07.885Z,1130.00
2023-05-02T01:34:07.802Z,1125.00
2023-05-02T01:35:07.805Z,1121.00
2023-05-02T01:36:07.848Z,1122.00
2023-05-02T01:37:07.869Z,1132.00
2023-05-02T01:38:07.877Z,1138.00
2023-05-02T01:39:07.932Z,1132.00
2023-05-02T01:40:07.932Z,1140.00
2023-05-02T01:41:07.946Z,1122.00
2023-05-02T01:42:08.008Z,1127.00
2023-05-02T01:43:08.019Z,1118.00
2023-05-02T01:44:08.052Z,1109.00
2023-05-02T01:45:08.047Z,1128.00
2023-05-02T01:46:08.061Z,1142.00
2023-05-02T01:47:08.143Z,1129.00
2023-05-02T01:48:08.192Z,1150.00
2023-05-02T01:49:08.199Z,1133.00
2023-05-02T01:50:08.206Z,1143.00
2023-05-02T01:51:08.228Z,1123.00
2023-05-02T01:52:08.232Z,1131.00
2023-05-02T01:53:08.264Z,1138.00
2023-05-02T01:54:08.309Z,1139.00
2023-05-02T01:55:08.354Z,1140.00
2023-05-02T01:56:08.356Z,1144.00
2023-05-02T01:57:08.717Z,1136.00
2023-05-02T01:58:08.382Z,1132.00
2023-05-02T01:59:08.413Z,1124.00
2023-05-02T02:00:08.436Z,1134.00
2023-05-02T02:01:08.526Z,1127.00
2023-05-02T02:02:08.489Z,1136.00
2023-05-02T02:03:08.563Z,1132.00
2023-05-02T02:04:08.571Z,1130.00
2023-05-02T02:05:08.500Z,1144.00
2023-05-02T02:06:08.616Z,1119.00
2023-05-02T02:07:08.579Z,1127.00
2023-05-02T02:08:08.632Z,1135.00
2023-05-02T02:09:08.650Z,1111.00
2023-05-02T02:10:08.650Z,1141.00
2023-05-02T02:11:08.657Z,1126.00
2023-05-02T02:12:08.713Z,1126.00
2023-05-02T02:13:08.807Z,1117.00
2023-05-02T02:14:08.780Z,1119.00
2023-05-02T02:15:08.746Z,1126.00
2023-05-02T02:16:09.157Z,1119.00
2023-05-02T02:17:08.874Z,1115.00
2023-05-02T02:18:08.910Z,1120.00
2023-05-02T02:19:08.954Z,1131.00
2023-05-02T02:20:08.888Z,1118.00
2023-05-02T02:21:08.899Z,1113.00
2023-05-02T02:22:08.911Z,1120.00
2023-05-02T02:23:09.250Z,1129.00
2023-05-02T02:24:08.996Z,1129.00
2023-05-02T02:25:09.013Z,1113.00
2023-05-02T02:26:09.026Z,1119.00
2023-05-02T02:27:09.101Z,1105.00
2023-05-02T02:28:09.104Z,1112.00
2023-05-02T02:29:09.128Z,1117.00
2023-05-02T02:30:09.153Z,1130.00
2023-05-02T02:31:09.204Z,1111.00
2023-05-02T02:32:09.222Z,1126.00
2023-05-02T02:33:09.281Z,1123.00
2023-05-02T02:34:09.237Z,1141.00
2023-05-02T02:35:09.242Z,1121.00
2023-05-02T02:36:09.365Z,1125.00
2023-05-02T02:37:09.286Z,1133.00
2023-05-02T02:38:09.318Z,1117.00
2023-05-02T02:39:09.373Z,1118.00
2023-05-02T02:40:09.363Z,1130.00
2023-05-02T02:41:09.418Z,1124.00
2023-05-02T02:42:09.427Z,1127.00
2023-05-02T02:43:09.501Z,1113.00
2023-05-02T02:44:09.904Z,1130.00
2023-05-02T02:45:09.467Z,1121.00
2023-05-02T02:46:09.593Z,1130.00
2023-05-02T02:47:09.570Z,1131.00
2023-05-02T02:48:09.633Z,1148.00
2023-05-02T02:49:09.597Z,1107.00
2023-05-02T02:50:09.648Z,1135.00
2023-05-02T02:51:09.670Z,1134.00
2023-05-02T02:52:09.672Z,1124.00
2023-05-02T02:53:09.735Z,1136.00
2023-05-02T02:54:23.001Z,1116.00
2023-05-02T02:55:10.748Z,1118.00
2023-05-02T02:56:09.740Z,1120.00
2023-05-02T02:57:09.743Z,1122.00
2023-05-02T02:58:09.751Z,1119.00
2023-05-02T02:59:09.719Z,1146.00
2023-05-02T03:00:09.724Z,1131.00
2023-05-02T03:01:09.727Z,1135.00
2023-05-02T03:02:09.792Z,1148.00
2023-05-02T03:03:09.774Z,1122.00
2023-05-02T03:04:09.707Z,1131.00
2023-05-02T03:05:09.715Z,1113.00
2023-05-02T03:06:09.649Z,1141.00
2023-05-02T03:07:09.644Z,1151.00
2023-05-02T03:08:09.650Z,1144.00
2023-05-02T03:09:09.629Z,1136.00
2023-05-02T03:10:09.618Z,1155.00
2023-05-02T03:11:09.620Z,1159.00
2023-05-02T03:12:09.644Z,1133.00
2023-05-02T03:13:09.638Z,1134.00
2023-05-02T03:14:09.661Z,1166.00
2023-05-02T03:15:09.710Z,1159.00
2023-05-02T03:16:09.761Z,1155.00
2023-05-02T03:17:09.770Z,1139.00
2023-05-02T03:18:09.818Z,1132.00
2023-05-02T03:19:09.774Z,1149.00
2023-05-02T03:20:09.836Z,1161.00
2023-05-02T03:21:09.849Z,1138.00
2023-05-02T03:22:09.881Z,1171.00
2023-05-02T03:23:09.908Z,1149.00
2023-05-02T03:24:09.993Z,1150.00
2023-05-02T03:25:09.934Z,1141.00
2023-05-02T03:26:09.982Z,1170.00
2023-05-02T03:27:10.022Z,1158.00
2023-05-02T03:28:10.043Z,1152.00
2023-05-02T03:29:10.057Z,1151.00
2023-05-02T03:30:10.077Z,1149.00
2023-05-02T03:31:10.128Z,1163.00
2023-05-02T03:32:10.256Z,1151.00
2023-05-02T03:33:10.310Z,1133.00
2023-05-02T03:34:10.171Z,1133.00
2023-05-02T03:35:10.194Z,1140.00
2023-05-02T03:36:10.220Z,1156.00
2023-05-02T03:37:10.237Z,1147.00
2023-05-02T03:38:10.313Z,1135.00
2023-05-02T03:39:10.290Z,1137.00
2023-05-02T03:40:10.315Z,1153.00
2023-05-02T03:41:10.312Z,1156.00
2023-05-02T03:42:10.399Z,1146.00
2023-05-02T03:43:10.404Z,1156.00
2023-05-02T03:44:10.416Z,1153.00
2023-05-02T03:45:10.578Z,1128.00
2023-05-02T03:46:10.502Z,1136.00
2023-05-02T03:47:10.560Z,1135.00
2023-05-02T03:48:10.595Z,1120.00
2023-05-02T03:49:10.572Z,1154.00
2023-05-02T03:50:10.600Z,1126.00
2023-05-02T03:51:10.612Z,1125.00
2023-05-02T03:52:10.641Z,1128.00
2023-05-02T03:53:10.688Z,1146.00
2023-05-02T03:54:10.758Z,1146.00
2023-05-02T03:55:10.746Z,1141.00
2023-05-02T03:56:11.043Z,1137.00
2023-05-02T03:57:10.765Z,1135.00
2023-05-02T03:58:10.831Z,1140.00
2023-05-02T03:59:10.856Z,1100.00
2023-05-02T04:00:10.873Z,1022.00
2023-05-02T04:01:10.852Z,979.00
2023-05-02T04:02:10.919Z,952.00
2023-05-02T04:03:10.977Z,938.00
2023-05-02T04:04:10.993Z,920.00
2023-05-02T04:05:10.963Z,917.00
2023-05-02T04:06:10.991Z,899.00
2023-05-02T04:07:10.975Z,868.00
2023-05-02T04:08:10.993Z,865.00
2023-05-02T04:09:11.044Z,843.00
2023-05-02T04:10:11.022Z,853.00
2023-05-02T04:11:11.064Z,839.00
2023-05-02T04:12:11.036Z,833.00
2023-05-02T04:13:11.015Z,823.00
2023-05-02T04:14:11.073Z,824.00
2023-05-02T04:15:11.090Z,816.00
2023-05-02T04:16:11.096Z,823.00
2023-05-02T04:17:11.115Z,807.00
2023-05-02T04:18:11.141Z,796.00
2023-05-02T04:19:11.117Z,780.00
2023-05-02T04:20:11.136Z,794.00
2023-05-02T04:21:11.124Z,782.00
2023-05-02T04:22:11.122Z,777.00
2023-05-02T04:23:11.139Z,784.00
2023-05-02T04:24:11.201Z,787.00
2023-05-02T04:25:11.156Z,772.00
2023-05-02T04:26:11.145Z,767.00
2023-05-02T04:27:13.724Z,768.00
2023-05-02T04:28:11.248Z,781.00
2023-05-02T04:29:11.176Z,781.00
2023-05-02T04:30:11.117Z,775.00
2023-05-02T04:31:11.181Z,786.00
2023-05-02T04:32:11.148Z,777.00
2023-05-02T04:33:11.120Z,768.00
2023-05-02T04:34:11.119Z,786.00
2023-05-02T04:35:11.121Z,791.00
2023-05-02T04:36:11.062Z,796.00
2023-05-02T04:37:11.086Z,791.00
2023-05-02T04:38:11.095Z,791.00
2023-05-02T04:39:11.097Z,786.00
2023-05-02T04:40:11.112Z,776.00
2023-05-02T04:41:11.368Z,785.00
2023-05-02T04:42:11.064Z,799.00
2023-05-02T04:43:11.049Z,789.00
2023-05-02T04:44:11.086Z,802.00
2023-05-02T04:45:11.031Z,793.00
2023-05-02T04:46:11.067Z,801.00
2023-05-02T04:47:11.034Z,797.00
2023-05-02T04:48:11.069Z,808.00
2023-05-02T04:49:11.012Z,800.00
2023-05-02T04:50:10.977Z,831.00
2023-05-02T04:51:10.990Z,824.00
2023-05-02T04:52:10.980Z,848.00
2023-05-02T04:53:10.982Z,824.00
2023-05-02T04:54:10.987Z,818.00
2023-05-02T04:55:10.976Z,862.00
2023-05-02T04:56:10.936Z,859.00
2023-05-02T04:57:10.966Z,860.00
2023-05-02T04:58:10.948Z,827.00
2023-05-02T04:59:10.912Z,849.00
2023-05-02T05:00:11.296Z,846.00
2023-05-02T05:02:29.870Z,500.00
2023-05-02T05:03:30.007Z,500.00
2023-05-02T05:04:29.788Z,500.00
2023-05-02T05:05:29.892Z,500.00
2023-05-02T05:06:29.833Z,500.00
2023-05-02T05:07:29.756Z,508.00
2023-05-02T05:08:30.040Z,508.00
2023-05-02T05:09:29.819Z,503.00
2023-05-02T05:10:29.713Z,507.00
2023-05-02T05:11:29.738Z,517.00
2023-05-02T05:12:29.795Z,515.00
2023-05-02T05:13:29.714Z,529.00
2023-05-02T05:14:30.058Z,540.00
2023-05-02T05:15:29.685Z,539.00
2023-05-02T05:16:29.696Z,547.00
2023-05-02T05:17:29.681Z,536.00
2023-05-02T05:18:29.681Z,538.00
2023-05-02T05:19:29.686Z,517.00
2023-05-02T05:20:29.696Z,518.00
2023-05-02T05:21:29.648Z,472.00
2023-05-02T05:22:29.650Z,400.00
2023-05-02T05:23:29.618Z,400.00
2023-05-02T05:24:29.977Z,400.00
2023-05-02T05:25:29.617Z,400.00
2023-05-02T05:26:29.633Z,422.00
2023-05-02T05:27:29.677Z,457.00
2023-05-02T05:28:29.650Z,490.00
2023-05-02T05:29:29.607Z,500.00
2023-05-02T05:30:29.607Z,524.00
2023-05-02T05:31:29.970Z,556.00
2023-05-02T05:32:29.622Z,613.00
2023-05-02T05:33:29.926Z,637.00
2023-05-02T05:34:30.279Z,644.00
2023-05-02T05:35:29.560Z,698.00
2023-05-02T05:36:29.643Z,1107.00
2023-05-02T05:37:29.955Z,1134.00
2023-05-02T05:38:29.970Z,1228.00
2023-05-02T05:39:30.066Z,1229.00
2023-05-02T05:40:29.529Z,1154.00
2023-05-02T05:41:29.824Z,1005.00
2023-05-02T05:42:29.873Z,1030.00
2023-05-02T05:43:29.523Z,971.00
2023-05-02T05:44:30.062Z,916.00
2023-05-02T05:45:29.496Z,883.00
2023-05-02T05:47:48.670Z,500.00
2023-05-02T05:48:48.438Z,500.00
2023-05-02T05:49:48.619Z,500.00
2023-05-02T05:50:48.448Z,500.00
2023-05-02T05:51:48.392Z,500.00
2023-05-02T05:52:48.368Z,506.00
2023-05-02T05:53:48.396Z,517.00
2023-05-02T05:54:48.411Z,523.00
2023-05-02T05:55:48.378Z,526.00
2023-05-02T05:56:49.444Z,489.00
2023-05-02T05:57:48.367Z,500.00
2023-05-02T05:58:48.341Z,490.00
2023-05-02T05:59:48.328Z,513.00
2023-05-02T06:00:48.302Z,527.00
2023-05-02T06:01:48.319Z,550.00
2023-05-02T06:02:48.463Z,586.00
2023-05-02T06:03:48.462Z,560.00
2023-05-02T06:04:48.345Z,532.00
2023-05-02T06:05:48.266Z,514.00
2023-05-02T06:06:48.298Z,507.00
2023-05-02T06:07:48.255Z,529.00
2023-05-02T06:08:48.278Z,503.00
2023-05-02T06:09:48.243Z,502.00
2023-05-02T06:10:48.269Z,522.00
2023-05-02T06:11:48.222Z,545.00
2023-05-02T06:12:49.210Z,556.00
2023-05-02T06:13:48.247Z,557.00
2023-05-02T06:14:48.613Z,558.00
2023-05-02T06:15:48.310Z,587.00
2023-05-02T06:16:48.259Z,572.00
2023-05-02T06:17:48.257Z,573.00
2023-05-02T06:18:48.212Z,638.00
2023-05-02T06:19:48.623Z,794.00
2023-05-02T06:20:48.332Z,847.00
2023-05-02T06:21:48.393Z,754.00
2023-05-02T06:22:48.495Z,615.00
2023-05-02T06:23:48.504Z,542.00
2023-05-02T06:24:48.657Z,519.00
2023-05-02T06:25:48.650Z,507.00
2023-05-02T06:26:48.695Z,571.00
2023-05-02T06:27:48.698Z,703.00
2023-05-02T06:28:48.775Z,1124.00
2023-05-02T06:29:48.761Z,1314.00
2023-05-02T06:30:48.796Z,1389.00
2023-05-02T06:31:48.886Z,1405.00
2023-05-02T06:32:48.995Z,1406.00
2023-05-02T06:33:48.959Z,1412.00
2023-05-02T06:34:48.991Z,1343.00
2023-05-02T06:35:48.947Z,1276.00
2023-05-02T06:36:49.011Z,1152.00
2023-05-02T06:37:49.008Z,1085.00
2023-05-02T06:38:49.107Z,1061.00
2023-05-02T06:39:49.112Z,1142.00
2023-05-02T06:40:49.117Z,1222.00
2023-05-02T06:41:49.190Z,1262.00
2023-05-02T06:42:49.198Z,1302.00
2023-05-02T06:43:49.168Z,1305.00
2023-05-02T06:44:49.623Z,1324.00
2023-05-02T06:45:49.209Z,1330.00
2023-05-02T06:46:49.220Z,1330.00
2023-05-02T06:47:49.260Z,1362.00
2023-05-02T06:48:49.246Z,1358.00
2023-05-02T06:49:49.319Z,1369.00
2023-05-02T06:50:50.054Z,1348.00
2023-05-02T06:51:49.300Z,1367.00
2023-05-02T06:52:49.342Z,1342.00
2023-05-02T06:53:49.312Z,1361.00
2023-05-02T06:54:50.333Z,1392.00
2023-05-02T06:55:49.373Z,1402.00
2023-05-02T06:56:49.326Z,1392.00
2023-05-02T06:57:50.137Z,1406.00
2023-05-02T06:58:49.454Z,1406.00
2023-05-02T06:59:49.704Z,1409.00
2023-05-02T07:00:49.449Z,1407.00
2023-05-02T07:01:49.410Z,1410.00
2023-05-02T07:02:50.172Z,1410.00
2023-05-02T07:03:49.540Z,1399.00
2023-05-02T07:04:49.452Z,1389.00
2023-05-02T07:05:49.428Z,1394.00
2023-05-02T07:06:49.530Z,1400.00
2023-05-02T07:07:49.460Z,1382.00
2023-05-02T07:08:49.468Z,1389.00
2023-05-02T07:09:49.666Z,1392.00
2023-05-02T07:10:49.608Z,1378.00
2023-05-02T07:11:49.477Z,1367.00
2023-05-02T07:12:49.500Z,1371.00
2023-05-02T07:13:49.498Z,1392.00
2023-05-02T07:14:49.484Z,1410.00
2023-05-02T07:15:49.530Z,1402.00
2023-05-02T07:16:49.615Z,1386.00
2023-05-02T07:17:49.699Z,1381.00
2023-05-02T07:18:49.549Z,1343.00
2023-05-02T07:19:49.625Z,1386.00
2023-05-02T07:20:49.755Z,1409.00
2023-05-02T07:21:49.591Z,1436.00
2023-05-02T07:22:49.639Z,1244.00
2023-05-02T07:23:49.608Z,1221.00
2023-05-02T07:24:49.652Z,1296.00
2023-05-02T07:25:49.635Z,1293.00
2023-05-02T07:26:49.645Z,1334.00
2023-05-02T07:27:49.701Z,1380.00
2023-05-02T07:28:49.648Z,1446.00
2023-05-02T07:29:49.614Z,1450.00
2023-05-02T07:30:50.151Z,1510.00
2023-05-02T07:31:49.702Z,1469.00
2023-05-02T07:32:49.748Z,1294.00
2023-05-02T07:33:49.685Z,1096.00
2023-05-02T07:34:49.688Z,1029.00
2023-05-02T07:35:50.175Z,950.00
2023-05-02T07:36:49.746Z,1172.00
2023-05-02T07:37:49.796Z,1311.00
2023-05-02T07:38:49.782Z,1334.00
2023-05-02T07:39:49.787Z,1375.00
2023-05-02T07:40:50.141Z,1375.00
2023-05-02T07:41:49.808Z,1373.00
2023-05-02T07:42:49.800Z,1356.00
2023-05-02T07:43:49.861Z,1390.00
2023-05-02T07:44:49.823Z,1438.00
2023-05-02T07:45:49.881Z,1474.00
2023-05-02T07:46:49.844Z,1476.00
2023-05-02T07:47:49.919Z,1531.00
2023-05-02T07:48:49.790Z,1501.00
2023-05-02T07:49:49.787Z,1539.00
2023-05-02T07:50:50.169Z,1592.00
2023-05-02T07:51:49.869Z,1608.00
2023-05-02T07:52:49.848Z,1635.00
2023-05-02T07:53:49.895Z,1634.00
2023-05-02T07:54:49.910Z,1653.00
2023-05-02T07:55:50.414Z,1656.00
2023-05-02T07:56:49.972Z,1632.00
2023-05-02T07:57:49.912Z,1597.00
2023-05-02T07:58:49.922Z,1640.00
2023-05-02T07:59:49.935Z,1575.00
2023-05-02T08:00:49.913Z,1636.00
2023-05-02T08:01:49.945Z,1629.00
2023-05-02T08:02:50.001Z,1525.00
2023-05-02T08:03:50.192Z,1462.00
2023-05-02T08:04:50.020Z,1630.00
2023-05-02T08:05:50.006Z,1713.00
2023-05-02T08:06:50.133Z,1863.00
2023-05-02T08:07:50.083Z,1946.00
2023-05-02T08:08:50.171Z,2020.00
2023-05-02T08:09:50.206Z,2042.00
2023-05-02T08:10:50.258Z,2036.00
2023-05-02T08:11:50.260Z,2001.00
2023-05-02T08:12:50.272Z,2016.00
2023-05-02T08:13:50.344Z,2075.00
2023-05-02T08:14:50.388Z,2087.00
2023-05-02T08:15:50.457Z,2092.00
2023-05-02T08:16:50.520Z,2104.00
2023-05-02T08:17:50.496Z,2110.00
2023-05-02T08:18:50.403Z,2087.00
2023-05-02T08:19:50.419Z,2081.00
2023-05-02T08:20:50.537Z,2076.00
2023-05-02T08:21:50.532Z,2089.00
2023-05-02T08:22:50.505Z,2104.00
2023-05-02T08:23:50.562Z,2140.00
2023-05-02T08:24:50.569Z,2142.00
2023-05-02T08:25:50.629Z,2152.00
2023-05-02T08:26:50.677Z,2144.00
2023-05-02T08:27:50.732Z,2142.00
2023-05-02T08:28:50.791Z,2143.00
2023-05-02T08:29:50.812Z,2144.00
2023-05-02T08:30:50.841Z,2136.00
2023-05-02T08:31:50.928Z,2123.00
2023-05-02T08:32:51.072Z,2158.00
2023-05-02T08:33:51.022Z,2111.00
2023-05-02T08:34:51.164Z,1827.00
2023-05-02T08:35:51.203Z,1587.00
2023-05-02T08:36:51.153Z,1361.00
2023-05-02T08:37:51.156Z,1225.00
2023-05-02T08:38:51.158Z,1158.00
2023-05-02T08:39:51.128Z,1432.00
2023-05-02T08:40:52.142Z,1553.00
2023-05-02T08:41:51.173Z,1364.00
2023-05-02T08:42:51.119Z,1240.00
2023-05-02T08:43:51.189Z,1239.00
2023-05-02T08:44:51.160Z,1248.00
2023-05-02T08:45:51.693Z,1059.00
2023-05-02T08:46:51.259Z,867.00
2023-05-02T08:47:51.255Z,697.00
2023-05-02T08:48:51.228Z,622.00
2023-05-02T08:49:51.245Z,600.00
2023-05-02T08:50:51.712Z,576.00
2023-05-02T08:51:51.320Z,628.00
2023-05-02T08:52:51.316Z,777.00
2023-05-02T08:53:51.318Z,848.00
2023-05-02T08:54:51.319Z,927.00
2023-05-02T08:55:51.351Z,1007.00
2023-05-02T08:56:51.702Z,1069.00
2023-05-02T08:57:51.351Z,1134.00
2023-05-02T08:58:51.374Z,1151.00
2023-05-02T08:59:51.394Z,1143.00
2023-05-02T09:00:51.492Z,1185.00
2023-05-02T09:01:51.461Z,1209.00
2023-05-02T09:02:51.548Z,1325.00
2023-05-02T09:03:51.557Z,1342.00
2023-05-02T09:04:51.579Z,1299.00
2023-05-02T09:05:51.643Z,1295.00
2023-05-02T09:06:51.828Z,1431.00
2023-05-02T09:07:51.839Z,1448.00
2023-05-02T09:08:51.872Z,1645.00
2023-05-02T09:09:51.892Z,1798.00
2023-05-02T09:10:51.982Z,1876.00
2023-05-02T09:11:52.029Z,1915.00
2023-05-02T09:12:52.104Z,1923.00
2023-05-02T09:13:52.154Z,1931.00
2023-05-02T09:14:52.226Z,1947.00
2023-05-02T09:15:52.276Z,1951.00
2023-05-02T09:16:52.358Z,1985.00
2023-05-02T09:17:52.417Z,1987.00
2023-05-02T09:18:52.459Z,1995.00
2023-05-02T09:19:52.528Z,2007.00
2023-05-02T09:20:52.571Z,1991.00
2023-05-02T09:21:52.688Z,2022.00
2023-05-02T09:22:52.654Z,1792.00
2023-05-02T09:23:52.655Z,1590.00
2023-05-02T09:24:52.612Z,1674.00
2023-05-02T09:25:52.631Z,1829.00
2023-05-02T09:26:52.709Z,1920.00
2023-05-02T09:27:52.625Z,2094.00
2023-05-02T09:28:52.678Z,2160.00
2023-05-02T09:29:52.673Z,2042.00
2023-05-02T09:30:52.805Z,1952.00
2023-05-02T09:31:56.026Z,1858.00
2023-05-02T09:32:52.779Z,1861.00
2023-05-02T09:33:52.667Z,1883.00
2023-05-02T09:34:52.668Z,1953.00
2023-05-02T09:35:52.808Z,2060.00
2023-05-02T09:36:52.679Z,1980.00
2023-05-02T09:37:52.737Z,2045.00
2023-05-02T09:38:52.641Z,2108.00
2023-05-02T09:39:52.595Z,2192.00
2023-05-02T09:40:52.664Z,2275.00
2023-05-02T09:41:52.675Z,2456.00
2023-05-02T09:42:52.708Z,2557.00
2023-05-02T09:43:52.587Z,2693.00
2023-05-02T09:44:52.580Z,2481.00
2023-05-02T09:45:52.618Z,2203.00
2023-05-02T09:46:52.543Z,1966.00
2023-05-02T09:47:52.607Z,1881.00
2023-05-02T09:48:52.564Z,1947.00
2023-05-02T09:49:52.574Z,2060.00
2023-05-02T09:50:52.573Z,2053.00
2023-05-02T09:51:52.615Z,2127.00
2023-05-02T09:52:52.555Z,2126.00
2023-05-02T09:53:52.510Z,2175.00
2023-05-02T09:54:52.515Z,2211.00
2023-05-02T09:55:52.507Z,2236.00
2023-05-02T09:56:52.469Z,2232.00
2023-05-02T09:57:52.516Z,2226.00
2023-05-02T09:58:52.495Z,2254.00
2023-05-02T09:59:52.533Z,2274.00
2023-05-02T10:00:52.578Z,2312.00
2023-05-02T10:01:52.625Z,2328.00
2023-05-02T10:02:52.754Z,2325.00
2023-05-02T10:03:52.817Z,2295.00
2023-05-02T10:04:52.822Z,2294.00
2023-05-02T10:05:52.838Z,2284.00
2023-05-02T10:06:53.013Z,2255.00
2023-05-02T10:07:52.953Z,2214.00
2023-05-02T10:08:53.070Z,2237.00
2023-05-02T10:09:53.115Z,2262.00
2023-05-02T10:10:53.117Z,2267.00
2023-05-02T10:11:53.251Z,2256.00
2023-05-02T10:12:53.256Z,2232.00
2023-05-02T10:13:53.396Z,2244.00
2023-05-02T10:14:53.412Z,2260.00
2023-05-02T10:15:53.496Z,2259.00
2023-05-02T10:16:53.495Z,2261.00
2023-05-02T10:17:53.626Z,2266.00
2023-05-02T10:18:53.632Z,2313.00
2023-05-02T10:19:53.703Z,2261.00
2023-05-02T10:20:53.764Z,2260.00
2023-05-02T10:21:54.217Z,2239.00
2023-05-02T10:22:53.876Z,2248.00
2023-05-02T10:23:53.989Z,2200.00
2023-05-02T10:24:54.038Z,2194.00
2023-05-02T10:25:54.352Z,2199.00
2023-05-02T10:26:54.203Z,2172.00
2023-05-02T10:27:54.211Z,2182.00
2023-05-02T10:28:54.279Z,2205.00
2023-05-02T10:29:54.317Z,2190.00
2023-05-02T10:30:54.397Z,2177.00
2023-05-02T10:31:54.793Z,2192.00
2023-05-02T10:32:54.551Z,2188.00
2023-05-02T10:33:54.568Z,2173.00
2023-05-02T10:34:54.613Z,2164.00
2023-05-02T10:35:54.695Z,2175.00
2023-05-02T10:36:55.250Z,2373.00
2023-05-02T10:37:54.814Z,2427.00
2023-05-02T10:38:54.864Z,2151.00
2023-05-02T10:39:54.919Z,1891.00
2023-05-02T10:40:54.912Z,1800.00
2023-05-02T10:41:55.228Z,1505.00
2023-05-02T10:42:54.878Z,1482.00
2023-05-02T10:43:54.924Z,1534.00
2023-05-02T10:44:54.899Z,1593.00
2023-05-02T10:45:55.066Z,1556.00
2023-05-02T10:46:55.001Z,1603.00
2023-05-02T10:47:55.140Z,1668.00
2023-05-02T10:48:55.152Z,1681.00
2023-05-02T10:49:55.267Z,1753.00
2023-05-02T10:50:55.137Z,1783.00
2023-05-02T10:51:55.687Z,1801.00
2023-05-02T10:52:55.298Z,1841.00
2023-05-02T10:53:55.334Z,1878.00
2023-05-02T10:54:55.368Z,1883.00
2023-05-02T10:55:55.490Z,1875.00
2023-05-02T10:56:55.573Z,1875.00
2023-05-02T10:57:55.524Z,1873.00
2023-05-02T10:58:55.621Z,1823.00
2023-05-02T10:59:55.685Z,1806.00
2023-05-02T11:00:55.842Z,1775.00
2023-05-02T11:01:56.364Z,1702.00
2023-05-02T11:02:56.023Z,1688.00
2023-05-02T11:03:55.960Z,1697.00
2023-05-02T11:04:56.069Z,1725.00
2023-05-02T11:05:56.083Z,1753.00
2023-05-02T11:06:56.256Z,1740.00
2023-05-02T11:07:56.312Z,1802.00
2023-05-02T11:08:56.279Z,1740.00
2023-05-02T11:09:56.273Z,1892.00
2023-05-02T11:10:56.334Z,1923.00
2023-05-02T11:11:56.704Z,1873.00
2023-05-02T11:12:56.452Z,1809.00
2023-05-02T11:13:56.519Z,1816.00
2023-05-02T11:14:56.567Z,1807.00
2023-05-02T11:15:56.650Z,1741.00
2023-05-02T11:16:56.757Z,1746.00
2023-05-02T11:17:56.720Z,1731.00
2023-05-02T11:18:56.779Z,1708.00
2023-05-02T11:19:56.879Z,1695.00
2023-05-02T11:20:56.915Z,1724.00
2023-05-02T11:21:57.003Z,1737.00
2023-05-02T11:22:57.057Z,1821.00
2023-05-02T11:23:57.135Z,1852.00
2023-05-02T11:24:57.200Z,1865.00
2023-05-02T11:25:57.214Z,1850.00
2023-05-02T11:26:57.281Z,1796.00
2023-05-02T11:27:57.320Z,1774.00
2023-05-02T11:28:57.442Z,1803.00
2023-05-02T11:29:57.494Z,1936.00
2023-05-02T11:30:58.063Z,2236.00
2023-05-02T11:31:57.840Z,2265.00
2023-05-02T11:32:57.618Z,2100.00
2023-05-02T11:33:57.646Z,1925.00
2023-05-02T11:34:58.139Z,1454.00
2023-05-02T11:35:57.708Z,1301.00
2023-05-02T11:36:58.202Z,837.00
2023-05-02T11:37:57.866Z,724.00
2023-05-02T11:38:57.965Z,1015.00
2023-05-02T11:39:57.989Z,994.00
2023-05-02T11:40:58.008Z,1133.00
2023-05-02T11:41:58.047Z,1190.00
2023-05-02T11:42:58.704Z,1180.00
2023-05-02T11:43:58.216Z,1204.00
2023-05-02T11:44:58.587Z,1218.00
2023-05-02T11:45:58.368Z,1246.00
2023-05-02T11:46:58.415Z,1253.00
2023-05-02T11:47:58.508Z,1281.00
2023-05-02T11:48:58.527Z,1337.00
2023-05-02T11:49:58.580Z,1388.00
2023-05-02T11:50:58.603Z,720.00
2023-05-02T11:51:58.716Z,1035.00
2023-05-02T11:52:58.727Z,1068.00
2023-05-02T11:53:58.792Z,1093.00
2023-05-02T11:54:58.953Z,1112.00
2023-05-02T11:55:58.946Z,1125.00
2023-05-02T11:56:58.994Z,1099.00
2023-05-02T11:57:59.064Z,1097.00
2023-05-02T11:58:59.122Z,1080.00
2023-05-02T11:59:59.177Z,1080.00
2023-05-02T12:00:59.223Z,1075.00
2023-05-02T12:01:59.284Z,1110.00
2023-05-02T12:02:59.441Z,1136.00
2023-05-02T12:03:59.435Z,1129.00
2023-05-02T12:04:59.717Z,1024.00
2023-05-02T12:05:59.679Z,1097.00
2023-05-02T12:06:59.691Z,1145.00
2023-05-02T12:07:59.640Z,1127.00
2023-05-02T12:08:59.755Z,1134.00
2023-05-02T12:09:59.747Z,1131.00
2023-05-02T12:10:59.815Z,1145.00
2023-05-02T12:11:59.921Z,1117.00
2023-05-02T12:12:59.963Z,1118.00